Target — 9HA2149 — position and weather

sailwx.info

Track history (hours):
 
Tides and Currents Weather Stations Pressure Air Temp Water Temp Dewpoint Dewpoint Depression Visibility Wind Speed Wind Dir Waves Ship Positions

Target

Last reported at 2014-Jul-14 06:33 UTC. Time now 2014-Jul-25 18:28 UTC.
Position N 59°60' E 027°09'.
Warning: this ship's position is 11 days out of date.

Length 250 m; draft 8 m.

Type: Tanker. MMSI: 248057000.

Date/timePositionNaut miles runAvg speedWind from/ knotsBaromVisibWave heightAir tempDewpointWater temp
2014-Jul-14 06:33N 59°60' E 027°09'1312.2
2014-Jul-14 05:28N 59°60' E 026°43'1312.5
2014-Jul-14 04:26N 59°57' E 026°17'22 6.8
2014-Jul-14 01:12N 60°08' E 025°39'0 0.0
2014-Jul-12 21:15N 60°09' E 025°39'7 9.6
2014-Jul-12 20:33N 60°03' E 025°34'5210.2
2014-Jul-12 15:26N 59°40' E 024°01'1211.3
2014-Jul-12 14:25N 59°36' E 023°39'1011.3
2014-Jul-12 13:33N 59°33' E 023°21'35910.7
2014-Jul-11 04:05N 55°31' E 015°06'611.2
2014-Jul-11 03:31N 55°28' E 014°56'1111.2
2014-Jul-11 02:33N 55°24' E 014°39'1111.3
2014-Jul-11 01:33N 55°14' E 014°27'1111.4
2014-Jul-11 00:33N 55°06' E 014°15'1111.0
2014-Jul-10 23:33N 54°59' E 013°59'1211.4
2014-Jul-10 22:31N 54°56' E 013°39'1111.1
2014-Jul-10 21:33N 54°53' E 013°21'1111.1
2014-Jul-10 20:33N 54°49' E 013°03'1111.1
2014-Jul-10 19:33N 54°45' E 012°45'1110.9
2014-Jul-10 18:33N 54°40' E 012°29'1010.4
2014-Jul-10 17:33N 54°33' E 012°15'10 9.9
2014-Jul-10 16:33N 54°25' E 012°07'1212.0
2014-Jul-10 15:33N 54°25' E 011°46'1212.2
2014-Jul-10 14:33N 54°30' E 011°27'1211.7
2014-Jul-10 13:33N 54°35' E 011°09'1211.6
2014-Jul-10 12:33N 54°39' E 010°50'7310.4
2014-Jul-10 05:31N 55°52' E 010°49'1211.0
2014-Jul-10 04:27N 56°00' E 011°03'1511.5
2014-Jul-10 03:10N 56°13' E 011°18'812.3
2014-Jul-10 02:32N 56°19' E 011°25'1312.4
2014-Jul-10 01:31N 56°31' E 011°36'1212.4
2014-Jul-10 00:33N 56°41' E 011°47'1211.8
2014-Jul-09 23:33N 56°53' E 011°48'1212.4
2014-Jul-09 22:33N 57°04' E 011°40'1212.2
2014-Jul-09 21:33N 57°16' E 011°32'1312.8
2014-Jul-09 20:33N 57°28' E 011°24'1312.7
2014-Jul-09 19:33N 57°36' E 011°07'1212.2
2014-Jul-09 18:33N 57°45' E 010°50'10 9.6
2014-Jul-09 17:33N 57°47' E 010°33'9 9.3
2014-Jul-09 16:33N 57°48' E 010°16'1211.7
2014-Jul-09 15:33N 57°46' E 009°54'1211.5
2014-Jul-09 14:33N 57°44' E 009°33'1211.5
2014-Jul-09 13:32N 57°43' E 009°11'41311.2
2014-Jul-08 00:33N 51°56' E 002°40'1211.7
2014-Jul-07 23:30N 51°44' E 002°34'1212.5
2014-Jul-07 22:33N 51°35' E 002°23'1312.8
2014-Jul-07 21:33N 51°24' E 002°12'1212.0
2014-Jul-07 20:33N 51°13' E 002°03'1313.4
2014-Jul-07 19:33N 51°07' E 001°44'1413.9
2014-Jul-07 18:33N 50°57' E 001°29'1413.8
2014-Jul-07 17:33N 50°44' E 001°22'1313.2
2014-Jul-07 16:33N 50°34' E 001°08'1413.0
2014-Jul-07 15:27N 50°27' E 000°48'1713.4
2014-Jul-07 14:09N 50°22' E 000°22'  
Track history (hours):
 
Tides and Currents Weather Stations Pressure Air Temp Water Temp Dewpoint Dewpoint Depression Visibility Wind Speed Wind Dir Waves Ship Positions

Target

Last reported at 2014-Jul-14 06:33 UTC. Time now 2014-Jul-25 18:28 UTC.
Position N 59°60' E 027°09'.
Warning: this ship's position is 11 days out of date.

Length 250 m; draft 8 m.

Type: Tanker. MMSI: 248057000.

Date/timePositionNaut miles runAvg speedWind from/ knotsBaromVisibWave heightAir tempDewpointWater temp
2014-Jul-14 06:33N 59°60' E 027°09'1312.2
2014-Jul-14 05:28N 59°60' E 026°43'1312.5
2014-Jul-14 04:26N 59°57' E 026°17'22 6.8
2014-Jul-14 01:12N 60°08' E 025°39'0 0.0
2014-Jul-12 21:15N 60°09' E 025°39'7 9.6
2014-Jul-12 20:33N 60°03' E 025°34'5210.2
2014-Jul-12 15:26N 59°40' E 024°01'1211.3
2014-Jul-12 14:25N 59°36' E 023°39'1011.3
2014-Jul-12 13:33N 59°33' E 023°21'35910.7
2014-Jul-11 04:05N 55°31' E 015°06'611.2
2014-Jul-11 03:31N 55°28' E 014°56'1111.2
2014-Jul-11 02:33N 55°24' E 014°39'1111.3
2014-Jul-11 01:33N 55°14' E 014°27'1111.4
2014-Jul-11 00:33N 55°06' E 014°15'1111.0
2014-Jul-10 23:33N 54°59' E 013°59'1211.4
2014-Jul-10 22:31N 54°56' E 013°39'1111.1
2014-Jul-10 21:33N 54°53' E 013°21'1111.1
2014-Jul-10 20:33N 54°49' E 013°03'1111.1
2014-Jul-10 19:33N 54°45' E 012°45'1110.9
2014-Jul-10 18:33N 54°40' E 012°29'1010.4
2014-Jul-10 17:33N 54°33' E 012°15'10 9.9
2014-Jul-10 16:33N 54°25' E 012°07'1212.0
2014-Jul-10 15:33N 54°25' E 011°46'1212.2
2014-Jul-10 14:33N 54°30' E 011°27'1211.7
2014-Jul-10 13:33N 54°35' E 011°09'1211.6
2014-Jul-10 12:33N 54°39' E 010°50'7310.4
2014-Jul-10 05:31N 55°52' E 010°49'1211.0
2014-Jul-10 04:27N 56°00' E 011°03'1511.5
2014-Jul-10 03:10N 56°13' E 011°18'812.3
2014-Jul-10 02:32N 56°19' E 011°25'1312.4
2014-Jul-10 01:31N 56°31' E 011°36'1212.4
2014-Jul-10 00:33N 56°41' E 011°47'1211.8
2014-Jul-09 23:33N 56°53' E 011°48'1212.4
2014-Jul-09 22:33N 57°04' E 011°40'1212.2
2014-Jul-09 21:33N 57°16' E 011°32'1312.8
2014-Jul-09 20:33N 57°28' E 011°24'1312.7
2014-Jul-09 19:33N 57°36' E 011°07'1212.2
2014-Jul-09 18:33N 57°45' E 010°50'10 9.6
2014-Jul-09 17:33N 57°47' E 010°33'9 9.3
2014-Jul-09 16:33N 57°48' E 010°16'1211.7
2014-Jul-09 15:33N 57°46' E 009°54'1211.5
2014-Jul-09 14:33N 57°44' E 009°33'1211.5
2014-Jul-09 13:32N 57°43' E 009°11'41311.2
2014-Jul-08 00:33N 51°56' E 002°40'1211.7
2014-Jul-07 23:30N 51°44' E 002°34'1212.5
2014-Jul-07 22:33N 51°35' E 002°23'1312.8
2014-Jul-07 21:33N 51°24' E 002°12'1212.0
2014-Jul-07 20:33N 51°13' E 002°03'1313.4
2014-Jul-07 19:33N 51°07' E 001°44'1413.9
2014-Jul-07 18:33N 50°57' E 001°29'1413.8
2014-Jul-07 17:33N 50°44' E 001°22'1313.2
2014-Jul-07 16:33N 50°34' E 001°08'1413.0
2014-Jul-07 15:27N 50°27' E 000°48'1713.4
2014-Jul-07 14:09N 50°22' E 000°22'  

Dump ship's entire track history